sensor_id;sensor_type;location;lat;lon;timestamp;temperature;humidity
72650;SHT31;61467;50.674;4.618;2023-04-03T00:01:20;5.73;68.19
72650;SHT31;61467;50.674;4.618;2023-04-03T00:03:47;5.73;68.11
72650;SHT31;61467;50.674;4.618;2023-04-03T00:06:15;5.71;68.00
72650;SHT31;61467;50.674;4.618;2023-04-03T00:08:42;5.73;68.08
72650;SHT31;61467;50.674;4.618;2023-04-03T00:11:09;5.71;68.31
72650;SHT31;61467;50.674;4.618;2023-04-03T00:13:37;5.69;68.38
72650;SHT31;61467;50.674;4.618;2023-04-03T00:16:05;5.68;68.35
72650;SHT31;61467;50.674;4.618;2023-04-03T00:18:32;5.61;68.26
72650;SHT31;61467;50.674;4.618;2023-04-03T00:20:59;5.69;68.26
72650;SHT31;61467;50.674;4.618;2023-04-03T00:23:27;5.65;68.18
72650;SHT31;61467;50.674;4.618;2023-04-03T00:25:54;5.59;68.18
72650;SHT31;61467;50.674;4.618;2023-04-03T00:28:21;5.51;68.38
72650;SHT31;61467;50.674;4.618;2023-04-03T00:30:49;5.51;68.32
72650;SHT31;61467;50.674;4.618;2023-04-03T00:33:16;5.48;68.01
72650;SHT31;61467;50.674;4.618;2023-04-03T00:35:44;5.45;68.00
72650;SHT31;61467;50.674;4.618;2023-04-03T00:38:11;5.41;68.09
72650;SHT31;61467;50.674;4.618;2023-04-03T00:40:43;5.37;68.31
72650;SHT31;61467;50.674;4.618;2023-04-03T00:43:12;5.33;68.29
72650;SHT31;61467;50.674;4.618;2023-04-03T00:45:41;5.33;68.55
72650;SHT31;61467;50.674;4.618;2023-04-03T00:48:12;5.33;68.47
72650;SHT31;61467;50.674;4.618;2023-04-03T00:50:41;5.16;68.48
72650;SHT31;61467;50.674;4.618;2023-04-03T00:53:11;5.16;68.73
72650;SHT31;61467;50.674;4.618;2023-04-03T00:55:43;5.20;68.65
72650;SHT31;61467;50.674;4.618;2023-04-03T00:58:10;5.17;68.19
72650;SHT31;61467;50.674;4.618;2023-04-03T01:00:40;5.10;68.04
72650;SHT31;61467;50.674;4.618;2023-04-03T01:03:08;5.06;68.46
72650;SHT31;61467;50.674;4.618;2023-04-03T01:05:35;5.06;68.40
72650;SHT31;61467;50.674;4.618;2023-04-03T01:08:02;4.99;68.70
72650;SHT31;61467;50.674;4.618;2023-04-03T01:10:29;4.97;68.60
72650;SHT31;61467;50.674;4.618;2023-04-03T01:12:59;4.97;68.75
72650;SHT31;61467;50.674;4.618;2023-04-03T01:15:27;4.89;68.71
72650;SHT31;61467;50.674;4.618;2023-04-03T01:17:56;4.89;68.74
72650;SHT31;61467;50.674;4.618;2023-04-03T01:23:53;4.65;69.39
72650;SHT31;61467;50.674;4.618;2023-04-03T01:26:22;4.72;69.07
72650;SHT31;61467;50.674;4.618;2023-04-03T01:28:53;4.77;69.31
72650;SHT31;61467;50.674;4.618;2023-04-03T01:31:25;4.76;69.05
72650;SHT31;61467;50.674;4.618;2023-04-03T01:33:54;4.71;68.87
72650;SHT31;61467;50.674;4.618;2023-04-03T01:36:23;4.77;69.00
72650;SHT31;61467;50.674;4.618;2023-04-03T01:38:51;4.76;68.77
72650;SHT31;61467;50.674;4.618;2023-04-03T01:41:18;4.71;68.96
72650;SHT31;61467;50.674;4.618;2023-04-03T01:43:46;4.68;69.07
72650;SHT31;61467;50.674;4.618;2023-04-03T01:46:13;4.76;68.84
72650;SHT31;61467;50.674;4.618;2023-04-03T01:48:40;4.68;69.04
72650;SHT31;61467;50.674;4.618;2023-04-03T01:51:08;4.73;68.87
72650;SHT31;61467;50.674;4.618;2023-04-03T01:53:35;4.56;69.23
72650;SHT31;61467;50.674;4.618;2023-04-03T01:56:02;4.68;69.42
72650;SHT31;61467;50.674;4.618;2023-04-03T01:58:29;4.63;69.01
72650;SHT31;61467;50.674;4.618;2023-04-03T02:00:56;4.62;69.32
72650;SHT31;61467;50.674;4.618;2023-04-03T02:03:23;4.65;69.24
72650;SHT31;61467;50.674;4.618;2023-04-03T02:05:50;4.65;69.34
72650;SHT31;61467;50.674;4.618;2023-04-03T02:08:20;4.65;69.15
72650;SHT31;61467;50.674;4.618;2023-04-03T02:10:47;4.63;69.22
72650;SHT31;61467;50.674;4.618;2023-04-03T02:13:14;4.66;68.89
72650;SHT31;61467;50.674;4.618;2023-04-03T02:15:41;4.63;69.25
72650;SHT31;61467;50.674;4.618;2023-04-03T02:18:08;4.55;69.39
72650;SHT31;61467;50.674;4.618;2023-04-03T02:20:35;4.58;69.40
72650;SHT31;61467;50.674;4.618;2023-04-03T02:23:02;4.52;69.48
72650;SHT31;61467;50.674;4.618;2023-04-03T02:25:31;4.51;69.49
72650;SHT31;61467;50.674;4.618;2023-04-03T02:27:58;4.48;69.92
72650;SHT31;61467;50.674;4.618;2023-04-03T02:30:25;4.49;70.25
72650;SHT31;61467;50.674;4.618;2023-04-03T02:32:53;4.49;70.14
72650;SHT31;61467;50.674;4.618;2023-04-03T02:35:20;4.51;69.90
72650;SHT31;61467;50.674;4.618;2023-04-03T02:37:46;4.41;69.58
72650;SHT31;61467;50.674;4.618;2023-04-03T02:40:13;4.41;70.11
72650;SHT31;61467;50.674;4.618;2023-04-03T02:42:41;4.45;70.30
72650;SHT31;61467;50.674;4.618;2023-04-03T02:45:09;4.42;70.12
72650;SHT31;61467;50.674;4.618;2023-04-03T02:47:36;4.42;70.50
72650;SHT31;61467;50.674;4.618;2023-04-03T02:50:03;4.41;70.21
72650;SHT31;61467;50.674;4.618;2023-04-03T02:52:30;4.38;70.32
72650;SHT31;61467;50.674;4.618;2023-04-03T02:54:57;4.28;70.19
72650;SHT31;61467;50.674;4.618;2023-04-03T02:57:24;4.30;70.21
72650;SHT31;61467;50.674;4.618;2023-04-03T02:59:52;4.25;70.41
72650;SHT31;61467;50.674;4.618;2023-04-03T03:02:19;4.28;70.57
72650;SHT31;61467;50.674;4.618;2023-04-03T03:04:46;4.21;70.35
72650;SHT31;61467;50.674;4.618;2023-04-03T03:07:13;4.25;70.38
72650;SHT31;61467;50.674;4.618;2023-04-03T03:09:40;4.24;70.38
72650;SHT31;61467;50.674;4.618;2023-04-03T03:12:06;4.24;70.25
72650;SHT31;61467;50.674;4.618;2023-04-03T03:14:33;4.14;70.57
72650;SHT31;61467;50.674;4.618;2023-04-03T03:17:02;4.18;70.22
72650;SHT31;61467;50.674;4.618;2023-04-03T03:19:28;4.20;70.70
72650;SHT31;61467;50.674;4.618;2023-04-03T03:21:55;4.20;70.37
72650;SHT31;61467;50.674;4.618;2023-04-03T03:24:22;4.12;69.99
72650;SHT31;61467;50.674;4.618;2023-04-03T03:26:49;4.14;70.61
72650;SHT31;61467;50.674;4.618;2023-04-03T03:29:16;4.15;70.40
72650;SHT31;61467;50.674;4.618;2023-04-03T03:31:43;4.12;70.14
72650;SHT31;61467;50.674;4.618;2023-04-03T03:34:11;4.15;70.36
72650;SHT31;61467;50.674;4.618;2023-04-03T03:36:38;4.14;70.24
72650;SHT31;61467;50.674;4.618;2023-04-03T03:39:05;4.17;70.08
72650;SHT31;61467;50.674;4.618;2023-04-03T03:41:32;4.14;70.45
72650;SHT31;61467;50.674;4.618;2023-04-03T03:43:59;4.14;70.46
72650;SHT31;61467;50.674;4.618;2023-04-03T03:46:26;4.10;70.75
72650;SHT31;61467;50.674;4.618;2023-04-03T03:48:52;4.10;70.44
72650;SHT31;61467;50.674;4.618;2023-04-03T03:51:21;4.10;70.69
72650;SHT31;61467;50.674;4.618;2023-04-03T03:53:48;4.03;70.90
72650;SHT31;61467;50.674;4.618;2023-04-03T03:56:14;4.00;70.70
72650;SHT31;61467;50.674;4.618;2023-04-03T03:58:41;4.01;71.10
72650;SHT31;61467;50.674;4.618;2023-04-03T04:01:08;4.03;70.95
72650;SHT31;61467;50.674;4.618;2023-04-03T04:03:35;4.01;71.28
72650;SHT31;61467;50.674;4.618;2023-04-03T04:06:02;3.95;71.00
72650;SHT31;61467;50.674;4.618;2023-04-03T04:08:30;4.00;70.97
72650;SHT31;61467;50.674;4.618;2023-04-03T04:10:57;3.97;70.95
72650;SHT31;61467;50.674;4.618;2023-04-03T04:13:24;3.94;71.08
72650;SHT31;61467;50.674;4.618;2023-04-03T04:15:51;3.91;71.05
72650;SHT31;61467;50.674;4.618;2023-04-03T04:18:18;3.90;71.22
72650;SHT31;61467;50.674;4.618;2023-04-03T04:20:45;3.87;71.34
72650;SHT31;61467;50.674;4.618;2023-04-03T04:23:12;3.87;71.20
72650;SHT31;61467;50.674;4.618;2023-04-03T04:25:40;3.90;71.00
72650;SHT31;61467;50.674;4.618;2023-04-03T04:28:07;3.90;71.15
72650;SHT31;61467;50.674;4.618;2023-04-03T04:30:34;3.91;70.77
72650;SHT31;61467;50.674;4.618;2023-04-03T04:33:00;3.93;70.63
72650;SHT31;61467;50.674;4.618;2023-04-03T04:35:27;3.87;70.97
72650;SHT31;61467;50.674;4.618;2023-04-03T04:37:54;3.89;71.04
72650;SHT31;61467;50.674;4.618;2023-04-03T04:40:21;3.83;71.28
72650;SHT31;61467;50.674;4.618;2023-04-03T04:42:50;3.87;70.95
72650;SHT31;61467;50.674;4.618;2023-04-03T04:45:17;3.83;71.18
72650;SHT31;61467;50.674;4.618;2023-04-03T04:47:44;3.72;71.11
72650;SHT31;61467;50.674;4.618;2023-04-03T04:50:11;3.59;71.26
72650;SHT31;61467;50.674;4.618;2023-04-03T04:52:38;3.62;71.37
72650;SHT31;61467;50.674;4.618;2023-04-03T04:55:06;3.59;71.50
72650;SHT31;61467;50.674;4.618;2023-04-03T04:57:33;3.59;71.63
72650;SHT31;61467;50.674;4.618;2023-04-03T05:00:02;3.55;71.36
72650;SHT31;61467;50.674;4.618;2023-04-03T05:02:29;3.56;71.59
72650;SHT31;61467;50.674;4.618;2023-04-03T05:04:56;3.59;71.52
72650;SHT31;61467;50.674;4.618;2023-04-03T05:07:23;3.55;71.44
72650;SHT31;61467;50.674;4.618;2023-04-03T05:09:49;3.53;71.65
72650;SHT31;61467;50.674;4.618;2023-04-03T05:12:16;3.63;71.64
72650;SHT31;61467;50.674;4.618;2023-04-03T05:14:43;3.62;71.61
72650;SHT31;61467;50.674;4.618;2023-04-03T05:17:11;3.62;71.39
72650;SHT31;61467;50.674;4.618;2023-04-03T05:19:38;3.64;71.15
72650;SHT31;61467;50.674;4.618;2023-04-03T05:22:05;3.69;71.02
72650;SHT31;61467;50.674;4.618;2023-04-03T05:24:32;3.60;71.00
72650;SHT31;61467;50.674;4.618;2023-04-03T05:26:59;3.58;71.28
72650;SHT31;61467;50.674;4.618;2023-04-03T05:29:26;3.59;71.35
72650;SHT31;61467;50.674;4.618;2023-04-03T05:31:53;3.58;71.66
72650;SHT31;61467;50.674;4.618;2023-04-03T05:34:21;3.62;71.54
72650;SHT31;61467;50.674;4.618;2023-04-03T05:36:48;3.64;71.14
72650;SHT31;61467;50.674;4.618;2023-04-03T05:39:15;3.62;70.97
72650;SHT31;61467;50.674;4.618;2023-04-03T05:41:43;3.62;71.02
72650;SHT31;61467;50.674;4.618;2023-04-03T05:44:10;3.63;71.18
72650;SHT31;61467;50.674;4.618;2023-04-03T05:46:37;3.70;71.13
72650;SHT31;61467;50.674;4.618;2023-04-03T05:49:07;3.59;71.07
72650;SHT31;61467;50.674;4.618;2023-04-03T05:51:36;3.53;71.02
72650;SHT31;61467;50.674;4.618;2023-04-03T05:54:09;3.63;71.15
72650;SHT31;61467;50.674;4.618;2023-04-03T05:56:36;3.69;71.08
72650;SHT31;61467;50.674;4.618;2023-04-03T05:59:03;3.70;71.30
72650;SHT31;61467;50.674;4.618;2023-04-03T06:01:30;3.84;71.01
72650;SHT31;61467;50.674;4.618;2023-04-03T06:03:56;3.81;70.52
72650;SHT31;61467;50.674;4.618;2023-04-03T06:06:24;3.66;70.50
72650;SHT31;61467;50.674;4.618;2023-04-03T06:08:52;3.86;70.07
72650;SHT31;61467;50.674;4.618;2023-04-03T06:11:19;3.93;70.14
72650;SHT31;61467;50.674;4.618;2023-04-03T06:13:46;4.07;69.94
72650;SHT31;61467;50.674;4.618;2023-04-03T06:16:15;4.12;69.62
72650;SHT31;61467;50.674;4.618;2023-04-03T06:18:42;4.25;69.65
72650;SHT31;61467;50.674;4.618;2023-04-03T06:21:09;4.30;68.89
72650;SHT31;61467;50.674;4.618;2023-04-03T06:23:36;4.37;68.87
72650;SHT31;61467;50.674;4.618;2023-04-03T06:26:04;4.53;69.11
72650;SHT31;61467;50.674;4.618;2023-04-03T06:28:31;4.62;68.58
72650;SHT31;61467;50.674;4.618;2023-04-03T06:30:58;4.71;67.79
72650;SHT31;61467;50.674;4.618;2023-04-03T06:33:24;4.72;68.19
72650;SHT31;61467;50.674;4.618;2023-04-03T06:35:56;4.86;67.82
72650;SHT31;61467;50.674;4.618;2023-04-03T06:38:23;4.90;67.64
72650;SHT31;61467;50.674;4.618;2023-04-03T06:40:50;4.99;67.39
72650;SHT31;61467;50.674;4.618;2023-04-03T06:43:19;5.07;66.88
72650;SHT31;61467;50.674;4.618;2023-04-03T06:45:47;5.14;66.65
72650;SHT31;61467;50.674;4.618;2023-04-03T06:48:13;5.16;66.60
72650;SHT31;61467;50.674;4.618;2023-04-03T06:50:42;5.20;66.52
72650;SHT31;61467;50.674;4.618;2023-04-03T06:53:09;5.24;66.31
72650;SHT31;61467;50.674;4.618;2023-04-03T06:55:37;5.14;66.50
72650;SHT31;61467;50.674;4.618;2023-04-03T06:58:04;5.21;66.40
72650;SHT31;61467;50.674;4.618;2023-04-03T07:00:33;5.21;66.04
72650;SHT31;61467;50.674;4.618;2023-04-03T07:03:00;4.90;67.05
72650;SHT31;61467;50.674;4.618;2023-04-03T07:05:26;4.92;68.01
72650;SHT31;61467;50.674;4.618;2023-04-03T07:07:53;5.20;67.25
72650;SHT31;61467;50.674;4.618;2023-04-03T07:10:21;5.35;66.83
72650;SHT31;61467;50.674;4.618;2023-04-03T07:12:47;5.37;66.34
72650;SHT31;61467;50.674;4.618;2023-04-03T07:15:14;5.38;67.23
72650;SHT31;61467;50.674;4.618;2023-04-03T07:17:43;5.51;66.88
72650;SHT31;61467;50.674;4.618;2023-04-03T07:20:10;5.61;66.24
72650;SHT31;61467;50.674;4.618;2023-04-03T07:22:37;5.54;66.47
72650;SHT31;61467;50.674;4.618;2023-04-03T07:25:05;5.58;67.05
72650;SHT31;61467;50.674;4.618;2023-04-03T07:27:33;5.73;66.27
72650;SHT31;61467;50.674;4.618;2023-04-03T07:30:00;5.68;66.69
72650;SHT31;61467;50.674;4.618;2023-04-03T07:32:26;5.92;65.38
72650;SHT31;61467;50.674;4.618;2023-04-03T07:34:55;5.92;65.73
72650;SHT31;61467;50.674;4.618;2023-04-03T07:37:21;5.99;65.22
72650;SHT31;61467;50.674;4.618;2023-04-03T07:39:48;6.01;65.23
72650;SHT31;61467;50.674;4.618;2023-04-03T07:42:16;6.19;64.58
72650;SHT31;61467;50.674;4.618;2023-04-03T07:44:43;6.07;64.92
72650;SHT31;61467;50.674;4.618;2023-04-03T07:47:10;6.19;65.06
72650;SHT31;61467;50.674;4.618;2023-04-03T07:49:38;5.96;64.62
72650;SHT31;61467;50.674;4.618;2023-04-03T07:52:07;5.99;65.06
72650;SHT31;61467;50.674;4.618;2023-04-03T07:54:36;5.89;65.38
72650;SHT31;61467;50.674;4.618;2023-04-03T07:57:03;5.99;65.06
72650;SHT31;61467;50.674;4.618;2023-04-03T07:59:30;5.93;65.64
72650;SHT31;61467;50.674;4.618;2023-04-03T08:01:59;6.01;65.57
72650;SHT31;61467;50.674;4.618;2023-04-03T08:04:26;5.99;65.04
72650;SHT31;61467;50.674;4.618;2023-04-03T08:06:53;6.26;65.10
72650;SHT31;61467;50.674;4.618;2023-04-03T08:09:21;6.47;64.68
72650;SHT31;61467;50.674;4.618;2023-04-03T08:11:48;6.67;63.62
72650;SHT31;61467;50.674;4.618;2023-04-03T08:14:18;6.87;63.17
72650;SHT31;61467;50.674;4.618;2023-04-03T08:16:46;6.98;62.78
72650;SHT31;61467;50.674;4.618;2023-04-03T08:19:14;6.67;63.17
72650;SHT31;61467;50.674;4.618;2023-04-03T08:21:42;6.91;62.84
72650;SHT31;61467;50.674;4.618;2023-04-03T08:24:10;6.74;62.99
72650;SHT31;61467;50.674;4.618;2023-04-03T08:26:38;6.72;62.65
72650;SHT31;61467;50.674;4.618;2023-04-03T08:29:05;6.55;63.29
72650;SHT31;61467;50.674;4.618;2023-04-03T08:31:32;6.67;63.08
72650;SHT31;61467;50.674;4.618;2023-04-03T08:33:59;6.77;62.73
72650;SHT31;61467;50.674;4.618;2023-04-03T08:36:27;6.85;63.35
72650;SHT31;61467;50.674;4.618;2023-04-03T08:38:55;6.85;62.55
72650;SHT31;61467;50.674;4.618;2023-04-03T08:41:29;7.15;61.59
72650;SHT31;61467;50.674;4.618;2023-04-03T08:44:15;7.25;60.92
72650;SHT31;61467;50.674;4.618;2023-04-03T08:47:00;6.96;63.07
72650;SHT31;61467;50.674;4.618;2023-04-03T08:49:31;7.03;61.51
72650;SHT31;61467;50.674;4.618;2023-04-03T08:52:00;7.01;61.00
72650;SHT31;61467;50.674;4.618;2023-04-03T08:54:31;7.22;61.13
72650;SHT31;61467;50.674;4.618;2023-04-03T08:57:02;7.18;60.25
72650;SHT31;61467;50.674;4.618;2023-04-03T08:59:33;7.32;60.69
72650;SHT31;61467;50.674;4.618;2023-04-03T09:02:04;7.20;59.97
72650;SHT31;61467;50.674;4.618;2023-04-03T09:04:42;7.30;60.23
72650;SHT31;61467;50.674;4.618;2023-04-03T09:07:15;7.12;60.90
72650;SHT31;61467;50.674;4.618;2023-04-03T09:09:46;7.30;61.23
72650;SHT31;61467;50.674;4.618;2023-04-03T09:12:18;7.15;61.81
72650;SHT31;61467;50.674;4.618;2023-04-03T09:14:54;7.19;61.36
72650;SHT31;61467;50.674;4.618;2023-04-03T09:17:31;7.29;60.42
72650;SHT31;61467;50.674;4.618;2023-04-03T09:20:07;7.40;59.81
72650;SHT31;61467;50.674;4.618;2023-04-03T09:22:38;7.53;61.04
72650;SHT31;61467;50.674;4.618;2023-04-03T09:25:12;7.37;60.94
72650;SHT31;61467;50.674;4.618;2023-04-03T09:27:39;7.30;60.83
72650;SHT31;61467;50.674;4.618;2023-04-03T09:30:13;7.40;60.60
72650;SHT31;61467;50.674;4.618;2023-04-03T09:32:40;7.67;60.00
72650;SHT31;61467;50.674;4.618;2023-04-03T09:35:17;7.50;59.56
72650;SHT31;61467;50.674;4.618;2023-04-03T09:37:46;7.44;59.90
72650;SHT31;61467;50.674;4.618;2023-04-03T09:40:37;7.47;60.82
72650;SHT31;61467;50.674;4.618;2023-04-03T09:43:23;7.44;59.69
72650;SHT31;61467;50.674;4.618;2023-04-03T09:45:54;7.40;59.37
72650;SHT31;61467;50.674;4.618;2023-04-03T09:48:23;7.33;60.59
72650;SHT31;61467;50.674;4.618;2023-04-03T09:50:58;7.67;60.42
72650;SHT31;61467;50.674;4.618;2023-04-03T09:53:31;7.66;59.05
72650;SHT31;61467;50.674;4.618;2023-04-03T09:55:59;7.80;59.88
72650;SHT31;61467;50.674;4.618;2023-04-03T09:58:30;7.95;57.49
72650;SHT31;61467;50.674;4.618;2023-04-03T10:01:01;7.98;56.81
72650;SHT31;61467;50.674;4.618;2023-04-03T10:03:30;7.87;57.03
72650;SHT31;61467;50.674;4.618;2023-04-03T10:05:58;7.98;58.96
72650;SHT31;61467;50.674;4.618;2023-04-03T10:08:29;7.97;57.61
72650;SHT31;61467;50.674;4.618;2023-04-03T10:11:14;8.12;57.62
72650;SHT31;61467;50.674;4.618;2023-04-03T10:13:57;8.21;56.55
72650;SHT31;61467;50.674;4.618;2023-04-03T10:16:35;8.50;56.61
72650;SHT31;61467;50.674;4.618;2023-04-03T10:19:20;8.49;56.43
72650;SHT31;61467;50.674;4.618;2023-04-03T10:21:52;8.25;54.69
72650;SHT31;61467;50.674;4.618;2023-04-03T10:24:24;8.26;53.64
72650;SHT31;61467;50.674;4.618;2023-04-03T10:26:57;8.48;54.45
72650;SHT31;61467;50.674;4.618;2023-04-03T10:29:36;8.56;55.06
72650;SHT31;61467;50.674;4.618;2023-04-03T10:32:19;8.93;55.95
72650;SHT31;61467;50.674;4.618;2023-04-03T10:34:52;8.91;53.35
72650;SHT31;61467;50.674;4.618;2023-04-03T10:37:24;8.81;54.36
72650;SHT31;61467;50.674;4.618;2023-04-03T10:39:57;9.00;55.39
72650;SHT31;61467;50.674;4.618;2023-04-03T10:42:30;9.08;54.78
72650;SHT31;61467;50.674;4.618;2023-04-03T10:45:08;8.94;53.02
72650;SHT31;61467;50.674;4.618;2023-04-03T10:47:51;8.88;53.11
72650;SHT31;61467;50.674;4.618;2023-04-03T10:50:35;9.13;53.99
72650;SHT31;61467;50.674;4.618;2023-04-03T10:53:12;9.36;51.93
72650;SHT31;61467;50.674;4.618;2023-04-03T10:55:45;9.52;53.69
72650;SHT31;61467;50.674;4.618;2023-04-03T10:58:20;9.32;51.46
72650;SHT31;61467;50.674;4.618;2023-04-03T11:00:50;9.41;49.41
72650;SHT31;61467;50.674;4.618;2023-04-03T11:03:29;9.36;47.56
72650;SHT31;61467;50.674;4.618;2023-04-03T11:06:00;9.34;48.47
72650;SHT31;61467;50.674;4.618;2023-04-03T11:08:33;9.45;47.64
72650;SHT31;61467;50.674;4.618;2023-04-03T11:11:06;9.49;50.05
72650;SHT31;61467;50.674;4.618;2023-04-03T11:13:37;9.63;50.32
72650;SHT31;61467;50.674;4.618;2023-04-03T11:16:06;9.66;47.73
72650;SHT31;61467;50.674;4.618;2023-04-03T11:18:39;9.75;45.93
72650;SHT31;61467;50.674;4.618;2023-04-03T11:21:12;9.63;46.44
72650;SHT31;61467;50.674;4.618;2023-04-03T11:23:44;9.73;45.20
72650;SHT31;61467;50.674;4.618;2023-04-03T11:26:14;9.93;45.01
72650;SHT31;61467;50.674;4.618;2023-04-03T11:28:41;9.97;44.52
72650;SHT31;61467;50.674;4.618;2023-04-03T11:31:19;9.86;44.57
72650;SHT31;61467;50.674;4.618;2023-04-03T11:34:00;10.17;43.62
72650;SHT31;61467;50.674;4.618;2023-04-03T11:36:33;10.14;45.98
72650;SHT31;61467;50.674;4.618;2023-04-03T11:39:18;10.23;47.95
72650;SHT31;61467;50.674;4.618;2023-04-03T11:41:47;10.23;46.64
72650;SHT31;61467;50.674;4.618;2023-04-03T11:44:38;10.32;47.05
72650;SHT31;61467;50.674;4.618;2023-04-03T11:47:06;10.47;45.66
72650;SHT31;61467;50.674;4.618;2023-04-03T11:50:08;10.57;43.56
72650;SHT31;61467;50.674;4.618;2023-04-03T11:53:10;10.63;42.23
72650;SHT31;61467;50.674;4.618;2023-04-03T11:56:29;10.55;41.38
72650;SHT31;61467;50.674;4.618;2023-04-03T11:59:16;10.47;41.71
72650;SHT31;61467;50.674;4.618;2023-04-03T12:01:48;10.54;40.25
72650;SHT31;61467;50.674;4.618;2023-04-03T12:04:17;10.51;42.32
72650;SHT31;61467;50.674;4.618;2023-04-03T12:07:12;10.84;43.23
72650;SHT31;61467;50.674;4.618;2023-04-03T12:10:02;10.98;41.49
72650;SHT31;61467;50.674;4.618;2023-04-03T12:12:42;10.76;42.34
72650;SHT31;61467;50.674;4.618;2023-04-03T12:15:19;10.82;43.21
72650;SHT31;61467;50.674;4.618;2023-04-03T12:17:47;11.19;40.82
72650;SHT31;61467;50.674;4.618;2023-04-03T12:20:46;11.19;40.72
72650;SHT31;61467;50.674;4.618;2023-04-03T12:23:24;11.54;40.79
72650;SHT31;61467;50.674;4.618;2023-04-03T12:26:00;11.70;39.12
72650;SHT31;61467;50.674;4.618;2023-04-03T12:28:28;11.63;38.40
72650;SHT31;61467;50.674;4.618;2023-04-03T12:30:56;11.62;37.94
72650;SHT31;61467;50.674;4.618;2023-04-03T12:33:30;11.78;39.01
72650;SHT31;61467;50.674;4.618;2023-04-03T12:36:05;11.47;36.37
72650;SHT31;61467;50.674;4.618;2023-04-03T12:39:05;11.84;37.23
72650;SHT31;61467;50.674;4.618;2023-04-03T12:41:45;12.17;36.31
72650;SHT31;61467;50.674;4.618;2023-04-03T12:44:30;11.57;33.93
72650;SHT31;61467;50.674;4.618;2023-04-03T12:47:00;11.32;35.36
72650;SHT31;61467;50.674;4.618;2023-04-03T12:49:35;11.64;35.60
72650;SHT31;61467;50.674;4.618;2023-04-03T12:52:05;11.75;33.47
72650;SHT31;61467;50.674;4.618;2023-04-03T12:54:45;11.54;35.28
72650;SHT31;61467;50.674;4.618;2023-04-03T12:57:21;11.54;33.73
72650;SHT31;61467;50.674;4.618;2023-04-03T12:59:50;11.84;35.12
72650;SHT31;61467;50.674;4.618;2023-04-03T13:02:23;11.66;33.50
72650;SHT31;61467;50.674;4.618;2023-04-03T13:04:51;11.74;34.43
72650;SHT31;61467;50.674;4.618;2023-04-03T13:07:23;12.06;34.72
72650;SHT31;61467;50.674;4.618;2023-04-03T13:09:57;12.11;33.81
72650;SHT31;61467;50.674;4.618;2023-04-03T13:12:26;12.15;33.52
72650;SHT31;61467;50.674;4.618;2023-04-03T13:14:55;12.26;34.85
72650;SHT31;61467;50.674;4.618;2023-04-03T13:17:23;12.34;34.52
72650;SHT31;61467;50.674;4.618;2023-04-03T13:19:52;12.15;34.02
72650;SHT31;61467;50.674;4.618;2023-04-03T13:22:27;12.06;33.45
72650;SHT31;61467;50.674;4.618;2023-04-03T13:24:57;11.83;34.57
72650;SHT31;61467;50.674;4.618;2023-04-03T13:27:26;11.60;34.56
72650;SHT31;61467;50.674;4.618;2023-04-03T13:29:57;12.05;34.28
72650;SHT31;61467;50.674;4.618;2023-04-03T13:32:27;12.20;35.53
72650;SHT31;61467;50.674;4.618;2023-04-03T13:34:54;12.15;34.62
72650;SHT31;61467;50.674;4.618;2023-04-03T13:37:24;11.71;35.11
72650;SHT31;61467;50.674;4.618;2023-04-03T13:40:00;12.11;36.76
72650;SHT31;61467;50.674;4.618;2023-04-03T13:42:31;12.12;37.03
72650;SHT31;61467;50.674;4.618;2023-04-03T13:45:17;12.17;36.64
72650;SHT31;61467;50.674;4.618;2023-04-03T13:47:47;12.53;35.55
72650;SHT31;61467;50.674;4.618;2023-04-03T13:50:18;12.70;35.75
72650;SHT31;61467;50.674;4.618;2023-04-03T13:52:48;12.29;34.76
72650;SHT31;61467;50.674;4.618;2023-04-03T13:55:19;12.22;34.53
72650;SHT31;61467;50.674;4.618;2023-04-03T13:57:53;12.56;34.91
72650;SHT31;61467;50.674;4.618;2023-04-03T14:00:30;12.59;34.73
72650;SHT31;61467;50.674;4.618;2023-04-03T14:02:57;12.64;34.83
72650;SHT31;61467;50.674;4.618;2023-04-03T14:05:26;12.92;34.52
72650;SHT31;61467;50.674;4.618;2023-04-03T14:07:53;12.70;34.44
72650;SHT31;61467;50.674;4.618;2023-04-03T14:10:21;12.84;34.80
72650;SHT31;61467;50.674;4.618;2023-04-03T14:12:48;12.60;34.40
72650;SHT31;61467;50.674;4.618;2023-04-03T14:15:19;13.07;35.45
72650;SHT31;61467;50.674;4.618;2023-04-03T14:17:49;13.11;35.40
72650;SHT31;61467;50.674;4.618;2023-04-03T14:20:19;12.94;34.57
72650;SHT31;61467;50.674;4.618;2023-04-03T14:22:47;13.08;34.19
72650;SHT31;61467;50.674;4.618;2023-04-03T14:25:14;13.13;34.23
72650;SHT31;61467;50.674;4.618;2023-04-03T14:27:44;12.92;34.23
72650;SHT31;61467;50.674;4.618;2023-04-03T14:30:15;12.86;33.76
72650;SHT31;61467;50.674;4.618;2023-04-03T14:32:44;13.00;34.23
72650;SHT31;61467;50.674;4.618;2023-04-03T14:35:12;13.08;36.28
72650;SHT31;61467;50.674;4.618;2023-04-03T14:37:40;12.84;34.75
72650;SHT31;61467;50.674;4.618;2023-04-03T14:40:08;13.02;34.15
72650;SHT31;61467;50.674;4.618;2023-04-03T14:42:38;13.07;33.65
72650;SHT31;61467;50.674;4.618;2023-04-03T14:45:06;12.96;33.50
72650;SHT31;61467;50.674;4.618;2023-04-03T14:47:39;12.75;33.87
72650;SHT31;61467;50.674;4.618;2023-04-03T14:50:12;12.99;34.03
72650;SHT31;61467;50.674;4.618;2023-04-03T14:52:40;13.59;34.23
72650;SHT31;61467;50.674;4.618;2023-04-03T14:55:08;13.37;34.01
72650;SHT31;61467;50.674;4.618;2023-04-03T14:57:36;13.52;33.89
72650;SHT31;61467;50.674;4.618;2023-04-03T15:00:07;13.52;33.55
72650;SHT31;61467;50.674;4.618;2023-04-03T15:02:36;13.78;34.21
72650;SHT31;61467;50.674;4.618;2023-04-03T15:05:06;13.64;34.11
72650;SHT31;61467;50.674;4.618;2023-04-03T15:07:37;13.65;32.39
72650;SHT31;61467;50.674;4.618;2023-04-03T15:10:15;13.27;34.43
72650;SHT31;61467;50.674;4.618;2023-04-03T15:12:43;13.31;34.26
72650;SHT31;61467;50.674;4.618;2023-04-03T15:15:10;13.34;32.78
72650;SHT31;61467;50.674;4.618;2023-04-03T15:17:37;13.17;33.26
72650;SHT31;61467;50.674;4.618;2023-04-03T15:20:11;13.45;34.04
72650;SHT31;61467;50.674;4.618;2023-04-03T15:22:40;13.18;33.75
72650;SHT31;61467;50.674;4.618;2023-04-03T15:25:08;12.64;34.75
72650;SHT31;61467;50.674;4.618;2023-04-03T15:27:35;11.94;35.72
72650;SHT31;61467;50.674;4.618;2023-04-03T15:30:03;11.85;37.93
72650;SHT31;61467;50.674;4.618;2023-04-03T15:32:30;11.99;38.28
72650;SHT31;61467;50.674;4.618;2023-04-03T15:34:57;11.85;37.87
72650;SHT31;61467;50.674;4.618;2023-04-03T15:37:24;11.59;38.22
72650;SHT31;61467;50.674;4.618;2023-04-03T15:39:52;11.20;38.19
72650;SHT31;61467;50.674;4.618;2023-04-03T15:42:19;11.15;37.81
72650;SHT31;61467;50.674;4.618;2023-04-03T15:44:46;11.29;37.12
72650;SHT31;61467;50.674;4.618;2023-04-03T15:47:13;11.15;37.02
72650;SHT31;61467;50.674;4.618;2023-04-03T15:49:40;11.25;37.87
72650;SHT31;61467;50.674;4.618;2023-04-03T15:52:07;11.30;38.04
72650;SHT31;61467;50.674;4.618;2023-04-03T15:54:34;11.22;37.06
72650;SHT31;61467;50.674;4.618;2023-04-03T15:57:03;11.13;38.10
72650;SHT31;61467;50.674;4.618;2023-04-03T15:59:30;11.05;37.20
72650;SHT31;61467;50.674;4.618;2023-04-03T16:01:58;10.76;37.79
72650;SHT31;61467;50.674;4.618;2023-04-03T16:04:27;10.71;37.29